Time;durP1;ratioP1;P1;durP2;ratioP2;P2;SDS_P1;SDS_P2;PMS_P1;PMS_P2;Temp;Humidity;BMP_temperature;BMP_pressure;BME280_temperature;BME280_humidity;BME280_pressure;Samples;Min_cycle;Max_cycle;Signal;HPM_P1;HPM_P2
2021/01/14 00:00:09;;;;;;;0.50;0.50;;;;;;;;;;5031232;28;20593;-63
2021/01/14 00:02:35;;;;;;;0.50;0.50;;;;;;;;;;5031203;28;20178;-61
2021/01/14 00:05:01;;;;;;;0.50;0.50;;;;;;;;;;5031325;28;20174;-61
2021/01/14 00:07:27;;;;;;;0.50;0.50;;;;;;;;;;5031224;28;20304;-62
2021/01/14 00:09:53;;;;;;;0.60;0.60;;;;;;;;;;5029938;28;20233;-63
2021/01/14 00:12:19;;;;;;;0.50;0.50;;;;;;;;;;5031273;28;20196;-63
2021/01/14 00:14:46;;;;;;;0.60;0.57;;;;;;;;;;5031115;28;20934;-62
2021/01/14 00:17:12;;;;;;;0.40;0.40;;;;;;;;;;5031181;28;20415;-64
2021/01/14 00:19:38;;;;;;;0.50;0.50;;;;;;;;;;5030738;28;20212;-63
2021/01/14 00:22:04;;;;;;;0.87;0.87;;;;;;;;;;5031194;28;20223;-63
2021/01/14 00:24:29;;;;;;;0.50;0.50;;;;;;;;;;5031182;28;20957;-63
2021/01/14 00:26:56;;;;;;;0.50;0.50;;;;;;;;;;5031177;28;20173;-63
2021/01/14 00:29:22;;;;;;;0.60;0.60;;;;;;;;;;5031523;28;20464;-63
2021/01/14 00:31:48;;;;;;;1.15;1.15;;;;;;;;;;5031015;28;20176;-63
2021/01/14 00:34:15;;;;;;;1.60;1.45;;;;;;;;;;5031092;28;20180;-64
2021/01/14 00:39:27;;;;;;;0.75;0.75;;;;;;;;;;5027491;28;20235;-64
2021/01/14 00:41:53;;;;;;;0.60;0.60;;;;;;;;;;5031059;28;20248;-64
2021/01/14 00:44:19;;;;;;;1.30;0.88;;;;;;;;;;5031193;28;20174;-63
2021/01/14 00:46:45;;;;;;;0.57;0.57;;;;;;;;;;5030962;28;20201;-63
2021/01/14 00:49:11;;;;;;;0.50;0.50;;;;;;;;;;5030805;28;20193;-63
2021/01/14 00:51:38;;;;;;;0.73;0.73;;;;;;;;;;5031013;28;20225;-63
2021/01/14 00:54:04;;;;;;;0.50;0.50;;;;;;;;;;5031082;28;20254;-64
2021/01/14 00:56:34;;;;;;;1.25;1.05;;;;;;;;;;5030859;28;20209;-65
2021/01/14 00:59:00;;;;;;;1.77;1.77;;;;;;;;;;5030323;28;20285;-64
2021/01/14 01:01:29;;;;;;;0.50;0.50;;;;;;;;;;5030841;28;20262;-64
2021/01/14 01:03:56;;;;;;;0.65;0.65;;;;;;;;;;5030932;28;20543;-64
2021/01/14 01:06:22;;;;;;;0.70;0.70;;;;;;;;;;5030750;28;20254;-63
2021/01/14 01:08:49;;;;;;;0.60;0.60;;;;;;;;;;5030671;28;20688;-63
2021/01/14 01:11:15;;;;;;;0.68;0.68;;;;;;;;;;5029602;28;20243;-64
2021/01/14 01:13:41;;;;;;;0.50;0.50;;;;;;;;;;5030695;28;20177;-63
2021/01/14 01:16:07;;;;;;;0.57;0.57;;;;;;;;;;5030787;28;20552;-63
2021/01/14 01:18:33;;;;;;;0.60;0.60;;;;;;;;;;5030500;28;20217;-63
2021/01/14 01:21:09;;;;;;;0.85;0.85;;;;;;;;;;5029107;28;20169;-64
2021/01/14 01:23:35;;;;;;;0.85;0.85;;;;;;;;;;5030780;28;20172;-62
2021/01/14 01:26:01;;;;;;;1.63;0.77;;;;;;;;;;5031418;28;20166;-62
2021/01/14 01:28:27;;;;;;;1.17;1.17;;;;;;;;;;5034430;28;20201;-64
2021/01/14 01:30:53;;;;;;;0.50;0.50;;;;;;;;;;5034082;28;20255;-63
2021/01/14 01:33:19;;;;;;;0.50;0.50;;;;;;;;;;5034353;28;20210;-63
2021/01/14 01:35:51;;;;;;;0.73;0.73;;;;;;;;;;5034128;28;20204;-63
2021/01/14 01:38:18;;;;;;;0.47;0.47;;;;;;;;;;5033981;28;20688;-63
2021/01/14 01:40:44;;;;;;;0.90;0.90;;;;;;;;;;5031170;28;20175;-63
2021/01/14 01:43:10;;;;;;;0.50;0.50;;;;;;;;;;5034372;28;20169;-62
2021/01/14 01:45:36;;;;;;;1.10;1.10;;;;;;;;;;5034227;28;20217;-63
2021/01/14 01:48:03;;;;;;;0.85;0.85;;;;;;;;;;5042047;28;20177;-63
2021/01/14 01:50:29;;;;;;;0.88;0.88;;;;;;;;;;5051192;28;20567;-64
2021/01/14 01:52:55;;;;;;;0.50;0.50;;;;;;;;;;5052961;28;20193;-64
2021/01/14 01:55:22;;;;;;;0.80;0.80;;;;;;;;;;5051486;28;20181;-65
2021/01/14 01:57:48;;;;;;;1.88;1.30;;;;;;;;;;5050351;28;20196;-64
2021/01/14 02:00:14;;;;;;;0.98;0.98;;;;;;;;;;5050713;28;20196;-62
2021/01/14 02:02:40;;;;;;;0.80;0.73;;;;;;;;;;5049919;28;20169;-65
2021/01/14 02:05:07;;;;;;;0.85;0.70;;;;;;;;;;5051161;28;20283;-66
2021/01/14 02:07:57;;;;;;;0.70;0.70;;;;;;;;;;5051287;28;20221;-63
2021/01/14 02:10:28;;;;;;;0.40;0.40;;;;;;;;;;5052026;28;20192;-64
2021/01/14 02:13:00;;;;;;;1.50;1.45;;;;;;;;;;5050339;28;20174;-64
2021/01/14 02:15:27;;;;;;;0.60;0.60;;;;;;;;;;5048389;28;20540;-64
2021/01/14 02:17:53;;;;;;;1.02;1.02;;;;;;;;;;5041517;28;20239;-61
2021/01/14 02:20:21;;;;;;;0.60;0.60;;;;;;;;;;5033564;28;20576;-63
2021/01/14 02:22:54;;;;;;;0.50;0.50;;;;;;;;;;5033527;28;20167;-62
2021/01/14 02:25:24;;;;;;;0.60;0.60;;;;;;;;;;5032111;28;20581;-62
2021/01/14 02:27:51;;;;;;;0.82;0.82;;;;;;;;;;5033355;28;20213;-64
2021/01/14 02:30:17;;;;;;;0.50;0.50;;;;;;;;;;5034285;28;20189;-65
2021/01/14 02:32:43;;;;;;;0.63;0.63;;;;;;;;;;5033496;28;20181;-65
2021/01/14 02:35:10;;;;;;;0.60;0.60;;;;;;;;;;5031844;28;20174;-64
2021/01/14 02:37:36;;;;;;;0.90;0.90;;;;;;;;;;5031719;28;20649;-64
2021/01/14 02:40:02;;;;;;;0.50;0.50;;;;;;;;;;5015354;28;20223;-64
2021/01/14 02:42:28;;;;;;;0.40;0.40;;;;;;;;;;5033138;28;20165;-62
2021/01/14 02:44:54;;;;;;;0.50;0.50;;;;;;;;;;5032797;28;20175;-64
2021/01/14 02:47:22;;;;;;;0.60;0.60;;;;;;;;;;5032954;28;20549;-64
2021/01/14 02:50:08;;;;;;;0.70;0.70;;;;;;;;;;5031651;28;20196;-64
2021/01/14 02:52:36;;;;;;;0.40;0.40;;;;;;;;;;5032056;28;20189;-64
2021/01/14 02:55:04;;;;;;;0.50;0.50;;;;;;;;;;5037157;28;20169;-65
2021/01/14 02:57:31;;;;;;;0.60;0.60;;;;;;;;;;5045009;28;20182;-65
2021/01/14 03:00:00;;;;;;;0.55;0.55;;;;;;;;;;5045416;28;20549;-65
2021/01/14 03:02:26;;;;;;;0.60;0.60;;;;;;;;;;5042281;28;20184;-65
2021/01/14 03:04:52;;;;;;;0.80;0.80;;;;;;;;;;5042817;28;20192;-65
2021/01/14 03:07:18;;;;;;;0.67;0.67;;;;;;;;;;5042917;28;20408;-65
2021/01/14 03:09:44;;;;;;;1.52;1.42;;;;;;;;;;5039638;28;20424;-65
2021/01/14 03:12:10;;;;;;;0.60;0.60;;;;;;;;;;5039424;28;20529;-65
2021/01/14 03:14:36;;;;;;;1.35;1.35;;;;;;;;;;5045069;28;20404;-65
2021/01/14 03:17:02;;;;;;;2.53;1.23;;;;;;;;;;5038155;28;20548;-64
2021/01/14 03:19:28;;;;;;;0.57;0.57;;;;;;;;;;5031993;28;20495;-64
2021/01/14 03:22:00;;;;;;;0.65;0.65;;;;;;;;;;5032313;28;20595;-64
2021/01/14 03:24:27;;;;;;;0.70;0.70;;;;;;;;;;5030124;28;20180;-65
2021/01/14 03:26:53;;;;;;;0.50;0.50;;;;;;;;;;5032375;28;20548;-65
2021/01/14 03:29:19;;;;;;;0.50;0.50;;;;;;;;;;5031991;28;20284;-64
2021/01/14 03:31:45;;;;;;;0.55;0.55;;;;;;;;;;5031997;28;20599;-64
2021/01/14 03:34:11;;;;;;;0.97;0.97;;;;;;;;;;5032327;28;20177;-64
2021/01/14 03:36:56;;;;;;;0.73;0.73;;;;;;;;;;5032130;28;20495;-64
2021/01/14 03:39:22;;;;;;;1.35;0.95;;;;;;;;;;5031614;28;20212;-64
2021/01/14 03:41:48;;;;;;;0.70;0.70;;;;;;;;;;5031805;28;20172;-65
2021/01/14 03:44:14;;;;;;;0.50;0.50;;;;;;;;;;5031820;28;20588;-65
2021/01/14 03:46:40;;;;;;;3.17;2.43;;;;;;;;;;5031625;28;20396;-65
2021/01/14 03:49:06;;;;;;;0.60;0.60;;;;;;;;;;5031204;28;20463;-64
2021/01/14 03:51:32;;;;;;;0.53;0.53;;;;;;;;;;5032067;28;20451;-65
2021/01/14 03:53:58;;;;;;;0.40;0.40;;;;;;;;;;5031638;28;20415;-64
2021/01/14 03:56:24;;;;;;;0.45;0.45;;;;;;;;;;5031475;28;20447;-64
2021/01/14 03:58:50;;;;;;;0.50;0.50;;;;;;;;;;5030992;28;20242;-67
2021/01/14 04:01:16;;;;;;;0.70;0.70;;;;;;;;;;5031502;28;20446;-62
2021/01/14 04:03:43;;;;;;;0.67;0.67;;;;;;;;;;5030385;28;20462;-63
2021/01/14 04:06:09;;;;;;;0.50;0.50;;;;;;;;;;5030206;28;20404;-63
2021/01/14 04:08:35;;;;;;;0.70;0.70;;;;;;;;;;5029934;28;20193;-61
2021/01/14 04:11:03;;;;;;;0.88;0.88;;;;;;;;;;5031082;28;20724;-63
2021/01/14 04:13:29;;;;;;;1.02;1.02;;;;;;;;;;5031007;28;20667;-61
2021/01/14 04:15:55;;;;;;;0.60;0.60;;;;;;;;;;5031209;28;20262;-62
2021/01/14 04:18:21;;;;;;;1.17;1.05;;;;;;;;;;5030842;28;20255;-63
2021/01/14 04:20:47;;;;;;;2.03;1.20;;;;;;;;;;5030955;28;20234;-64
2021/01/14 04:23:14;;;;;;;0.52;0.52;;;;;;;;;;5028832;28;20183;-61
2021/01/14 04:25:40;;;;;;;0.73;0.73;;;;;;;;;;5031351;28;20204;-62
2021/01/14 04:28:06;;;;;;;0.50;0.50;;;;;;;;;;5031481;28;20336;-62
2021/01/14 04:30:32;;;;;;;0.60;0.60;;;;;;;;;;5031335;28;20573;-60
2021/01/14 04:33:09;;;;;;;0.50;0.50;;;;;;;;;;5031342;28;20636;-63
2021/01/14 04:35:35;;;;;;;0.93;0.93;;;;;;;;;;5031634;28;20184;-63
2021/01/14 04:38:02;;;;;;;1.30;1.30;;;;;;;;;;5031277;28;20196;-62
2021/01/14 04:40:28;;;;;;;1.05;1.05;;;;;;;;;;5031153;28;20627;-63
2021/01/14 04:42:54;;;;;;;0.50;0.50;;;;;;;;;;5031404;28;20215;-63
2021/01/14 04:45:21;;;;;;;0.52;0.52;;;;;;;;;;5031342;28;20404;-61
2021/01/14 04:47:50;;;;;;;0.60;0.60;;;;;;;;;;5031226;28;20733;-64
2021/01/14 04:50:17;;;;;;;0.50;0.50;;;;;;;;;;5031282;28;20182;-63
2021/01/14 04:52:43;;;;;;;1.60;1.50;;;;;;;;;;5031344;28;20166;-62
2021/01/14 04:55:16;;;;;;;0.60;0.60;;;;;;;;;;5031486;28;20181;-63
2021/01/14 04:57:45;;;;;;;0.80;0.80;;;;;;;;;;5031192;28;20188;-63
2021/01/14 05:00:12;;;;;;;0.60;0.60;;;;;;;;;;5030850;28;20692;-61
2021/01/14 05:03:07;;;;;;;2.05;1.95;;;;;;;;;;5034693;28;20181;-62
2021/01/14 05:05:37;;;;;;;0.50;0.50;;;;;;;;;;5022084;28;20196;-63
2021/01/14 05:08:04;;;;;;;1.17;1.15;;;;;;;;;;5034938;28;20168;-63
2021/01/14 05:10:31;;;;;;;1.98;0.90;;;;;;;;;;5034773;28;20184;-63
2021/01/14 05:12:57;;;;;;;0.50;0.50;;;;;;;;;;5034610;28;20259;-64
2021/01/14 05:15:26;;;;;;;1.27;1.17;;;;;;;;;;5034978;28;20168;-64
2021/01/14 05:17:52;;;;;;;1.20;1.20;;;;;;;;;;5034325;28;20613;-64
2021/01/14 05:20:18;;;;;;;0.40;0.40;;;;;;;;;;5034552;28;20199;-63
2021/01/14 05:22:46;;;;;;;0.90;0.90;;;;;;;;;;5034605;28;20404;-64
2021/01/14 05:25:12;;;;;;;0.98;0.85;;;;;;;;;;5034573;28;20204;-64
2021/01/14 05:27:38;;;;;;;0.50;0.50;;;;;;;;;;5034595;28;20565;-62
2021/01/14 05:30:08;;;;;;;0.68;0.68;;;;;;;;;;5034288;28;20185;-62
2021/01/14 05:32:34;;;;;;;2.55;2.35;;;;;;;;;;5034353;28;20173;-63
2021/01/14 05:35:00;;;;;;;1.55;1.45;;;;;;;;;;5034751;28;20169;-64
2021/01/14 05:37:26;;;;;;;0.40;0.40;;;;;;;;;;5034264;28;20254;-61
2021/01/14 05:39:53;;;;;;;1.58;1.48;;;;;;;;;;5033889;28;20235;-62
2021/01/14 05:42:19;;;;;;;1.00;1.00;;;;;;;;;;5033040;28;20219;-62
2021/01/14 05:44:45;;;;;;;0.40;0.40;;;;;;;;;;5033862;28;20176;-62
2021/01/14 05:47:37;;;;;;;0.85;0.65;;;;;;;;;;5034171;28;20165;-63
2021/01/14 05:50:04;;;;;;;0.85;0.85;;;;;;;;;;5031236;28;20251;-64
2021/01/14 05:52:31;;;;;;;0.80;0.80;;;;;;;;;;5034254;28;20652;-65
2021/01/14 05:54:59;;;;;;;0.70;0.70;;;;;;;;;;5034193;28;20231;-63
2021/01/14 05:57:30;;;;;;;1.33;0.80;;;;;;;;;;5033726;28;20641;-64
2021/01/14 05:59:56;;;;;;;1.52;1.42;;;;;;;;;;5033890;28;20262;-64
2021/01/14 06:02:31;;;;;;;1.13;1.13;;;;;;;;;;5033433;28;20181;-64
2021/01/14 06:04:58;;;;;;;0.50;0.50;;;;;;;;;;5033700;28;20644;-63
2021/01/14 06:07:25;;;;;;;0.85;0.85;;;;;;;;;;5032417;28;20173;-63
2021/01/14 06:09:51;;;;;;;2.97;1.50;;;;;;;;;;5033923;28;20200;-64
2021/01/14 06:12:17;;;;;;;1.75;1.33;;;;;;;;;;5033592;28;20175;-62
2021/01/14 06:14:43;;;;;;;0.50;0.50;;;;;;;;;;5033933;28;20177;-65
2021/01/14 06:17:13;;;;;;;0.50;0.50;;;;;;;;;;5033705;28;20192;-64
2021/01/14 06:19:39;;;;;;;0.60;0.60;;;;;;;;;;5033236;28;20212;-64
2021/01/14 06:22:06;;;;;;;0.65;0.65;;;;;;;;;;5033720;28;20169;-63
2021/01/14 06:24:36;;;;;;;2.85;2.65;;;;;;;;;;5033643;28;20533;-63
2021/01/14 06:27:05;;;;;;;0.60;0.60;;;;;;;;;;5033554;28;20248;-63
2021/01/14 06:29:31;;;;;;;2.22;2.08;;;;;;;;;;5033203;28;20237;-63
2021/01/14 06:32:07;;;;;;;0.50;0.50;;;;;;;;;;5033654;28;20173;-63
2021/01/14 06:34:34;;;;;;;0.60;0.60;;;;;;;;;;5033659;28;20268;-63
2021/01/14 06:37:07;;;;;;;1.33;1.33;;;;;;;;;;5033439;28;20211;-63
2021/01/14 06:39:37;;;;;;;0.60;0.60;;;;;;;;;;5033184;28;20220;-63
2021/01/14 06:42:10;;;;;;;0.70;0.70;;;;;;;;;;5033434;28;20641;-63
2021/01/14 06:44:41;;;;;;;0.80;0.80;;;;;;;;;;5033190;28;20208;-64
2021/01/14 06:47:09;;;;;;;0.88;0.88;;;;;;;;;;5033070;28;20543;-62
2021/01/14 06:49:37;;;;;;;1.85;1.75;;;;;;;;;;5032915;28;20710;-63
2021/01/14 06:52:09;;;;;;;0.75;0.75;;;;;;;;;;5033073;28;20300;-63
2021/01/14 06:54:38;;;;;;;1.88;1.67;;;;;;;;;;5032934;28;20254;-62
2021/01/14 06:57:07;;;;;;;1.40;1.23;;;;;;;;;;5032768;28;20664;-64
2021/01/14 06:59:37;;;;;;;0.82;0.82;;;;;;;;;;5032110;28;20239;-62
2021/01/14 07:02:05;;;;;;;0.93;0.93;;;;;;;;;;5032810;28;20249;-62
2021/01/14 07:04:36;;;;;;;0.70;0.70;;;;;;;;;;5032675;28;20205;-62
2021/01/14 07:07:28;;;;;;;0.88;0.88;;;;;;;;;;5032711;28;20535;-61
2021/01/14 07:09:57;;;;;;;0.50;0.50;;;;;;;;;;5032166;28;20203;-64
2021/01/14 07:12:24;;;;;;;0.88;0.88;;;;;;;;;;5032303;28;20271;-64
2021/01/14 07:14:51;;;;;;;1.05;1.02;;;;;;;;;;5031252;28;20189;-65
2021/01/14 07:17:18;;;;;;;0.82;0.80;;;;;;;;;;5032349;28;20643;-63
2021/01/14 07:19:44;;;;;;;1.02;1.02;;;;;;;;;;5031852;28;20217;-62
2021/01/14 07:22:13;;;;;;;1.27;1.27;;;;;;;;;;5032517;28;20165;-63
2021/01/14 07:24:40;;;;;;;0.98;0.98;;;;;;;;;;5031557;28;20184;-64
2021/01/14 07:27:08;;;;;;;2.05;1.95;;;;;;;;;;5012613;28;20687;-65
2021/01/14 07:29:41;;;;;;;0.65;0.65;;;;;;;;;;5023966;28;20232;-66
2021/01/14 07:32:07;;;;;;;1.88;1.75;;;;;;;;;;5030795;28;20200;-64
2021/01/14 07:34:35;;;;;;;0.50;0.50;;;;;;;;;;5032278;28;20549;-64
2021/01/14 07:37:01;;;;;;;0.90;0.90;;;;;;;;;;5031041;28;20187;-64
2021/01/14 07:39:46;;;;;;;1.00;1.00;;;;;;;;;;5029352;28;20212;-64
2021/01/14 07:42:32;;;;;;;0.55;0.55;;;;;;;;;;5031541;28;20223;-65
2021/01/14 07:44:59;;;;;;;1.10;1.10;;;;;;;;;;5032056;28;20208;-64
2021/01/14 07:47:26;;;;;;;0.43;0.43;;;;;;;;;;5031814;28;20161;-64
2021/01/14 07:49:52;;;;;;;0.60;0.60;;;;;;;;;;5031304;28;20200;-64
2021/01/14 07:52:34;;;;;;;0.60;0.60;;;;;;;;;;5031310;28;20222;-62
2021/01/14 07:55:06;;;;;;;0.73;0.65;;;;;;;;;;5031700;28;20184;-64
2021/01/14 07:57:41;;;;;;;1.13;1.13;;;;;;;;;;5031774;28;20176;-64
2021/01/14 08:00:10;;;;;;;1.13;1.13;;;;;;;;;;5031659;28;20220;-65
2021/01/14 08:02:54;;;;;;;1.48;1.38;;;;;;;;;;5031240;28;20246;-64
2021/01/14 08:05:39;;;;;;;7.22;2.35;;;;;;;;;;5031410;28;20662;-65
2021/01/14 08:08:23;;;;;;;0.90;0.90;;;;;;;;;;5031222;28;20201;-65
2021/01/14 08:11:06;;;;;;;4.00;1.70;;;;;;;;;;5030997;28;20234;-61
2021/01/14 08:13:32;;;;;;;1.25;1.25;;;;;;;;;;5031017;28;20597;-64
2021/01/14 08:15:59;;;;;;;1.20;0.90;;;;;;;;;;5031256;28;20208;-64
2021/01/14 08:18:25;;;;;;;1.67;1.58;;;;;;;;;;5030838;28;20287;-64
2021/01/14 08:21:09;;;;;;;0.50;0.50;;;;;;;;;;5031229;28;20751;-65
2021/01/14 08:23:41;;;;;;;1.98;1.88;;;;;;;;;;5031486;28;20599;-65
2021/01/14 08:26:11;;;;;;;1.10;1.10;;;;;;;;;;5030657;28;20535;-65
2021/01/14 08:28:37;;;;;;;1.35;1.35;;;;;;;;;;5032021;28;20205;-67
2021/01/14 08:31:03;;;;;;;1.10;1.08;;;;;;;;;;5030903;28;20172;-66
2021/01/14 08:33:30;;;;;;;1.35;1.30;;;;;;;;;;5031068;28;20706;-66
2021/01/14 08:36:04;;;;;;;1.00;1.00;;;;;;;;;;5033025;28;20244;-66
2021/01/14 08:38:31;;;;;;;1.23;1.23;;;;;;;;;;5034973;28;20295;-66
2021/01/14 08:41:01;;;;;;;1.40;1.40;;;;;;;;;;5034287;28;20192;-66
2021/01/14 08:43:42;;;;;;;0.70;0.70;;;;;;;;;;5034768;28;20517;-65
2021/01/14 08:46:08;;;;;;;0.60;0.60;;;;;;;;;;5034272;28;20252;-66
2021/01/14 08:48:35;;;;;;;0.75;0.75;;;;;;;;;;5033205;28;20197;-66
2021/01/14 08:51:01;;;;;;;1.33;1.25;;;;;;;;;;5034905;28;20268;-66
2021/01/14 08:53:40;;;;;;;1.25;1.25;;;;;;;;;;5034793;28;20211;-66
2021/01/14 08:56:09;;;;;;;1.15;0.98;;;;;;;;;;5034570;28;20173;-66
2021/01/14 08:58:41;;;;;;;3.35;1.15;;;;;;;;;;5033761;28;20295;-66
2021/01/14 09:01:09;;;;;;;1.33;1.33;;;;;;;;;;5033241;28;20260;-66
2021/01/14 09:03:36;;;;;;;1.35;1.13;;;;;;;;;;5033454;28;20456;-66
2021/01/14 09:06:02;;;;;;;1.35;1.13;;;;;;;;;;5035087;28;20533;-66
2021/01/14 09:08:29;;;;;;;1.65;1.55;;;;;;;;;;5034429;28;20195;-66
2021/01/14 09:10:55;;;;;;;1.08;1.02;;;;;;;;;;5033920;28;20177;-66
2021/01/14 09:13:23;;;;;;;2.30;2.20;;;;;;;;;;5034492;28;20208;-66
2021/01/14 09:15:49;;;;;;;0.95;0.95;;;;;;;;;;5034505;28;20165;-66
2021/01/14 09:18:17;;;;;;;0.63;0.63;;;;;;;;;;5034552;28;20317;-65
2021/01/14 09:20:51;;;;;;;1.45;1.40;;;;;;;;;;5034231;28;20343;-65
2021/01/14 09:23:21;;;;;;;0.70;0.70;;;;;;;;;;5034823;28;20177;-66
2021/01/14 09:25:56;;;;;;;0.70;0.70;;;;;;;;;;5033244;28;20183;-65
2021/01/14 09:28:24;;;;;;;1.20;1.20;;;;;;;;;;5034452;28;20216;-66
2021/01/14 09:30:57;;;;;;;0.93;0.93;;;;;;;;;;5034560;28;20181;-65
2021/01/14 09:33:24;;;;;;;1.13;1.13;;;;;;;;;;5034072;28;20227;-66
2021/01/14 09:35:57;;;;;;;1.05;1.05;;;;;;;;;;5034294;28;20242;-66
2021/01/14 09:38:23;;;;;;;1.65;1.55;;;;;;;;;;5034027;28;20224;-65
2021/01/14 09:40:53;;;;;;;1.48;0.70;;;;;;;;;;5034155;28;20239;-65
2021/01/14 09:43:19;;;;;;;1.10;0.88;;;;;;;;;;5033831;28;20532;-66
2021/01/14 09:45:48;;;;;;;0.70;0.70;;;;;;;;;;5034309;28;20691;-66
2021/01/14 09:48:14;;;;;;;0.80;0.80;;;;;;;;;;5033317;28;20217;-65
2021/01/14 09:50:43;;;;;;;1.40;1.40;;;;;;;;;;5033606;28;20671;-65
2021/01/14 09:53:09;;;;;;;0.82;0.82;;;;;;;;;;5033839;28;20184;-66
2021/01/14 09:55:36;;;;;;;1.25;1.00;;;;;;;;;;5033240;28;20174;-65
2021/01/14 09:58:02;;;;;;;1.90;1.85;;;;;;;;;;5033805;28;20209;-66
2021/01/14 10:00:29;;;;;;;2.00;1.90;;;;;;;;;;5034004;28;20185;-65
2021/01/14 10:03:01;;;;;;;0.88;0.88;;;;;;;;;;5034715;28;20173;-65
2021/01/14 10:05:28;;;;;;;0.95;0.85;;;;;;;;;;5033843;28;20197;-66
2021/01/14 10:08:00;;;;;;;1.50;1.50;;;;;;;;;;5042266;28;20234;-66
2021/01/14 10:10:28;;;;;;;1.98;1.88;;;;;;;;;;5050472;28;20191;-65
2021/01/14 10:12:55;;;;;;;0.85;0.85;;;;;;;;;;5033132;28;20192;-65
2021/01/14 10:15:21;;;;;;;3.58;3.03;;;;;;;;;;5033893;28;20173;-65
2021/01/14 10:17:47;;;;;;;0.90;0.90;;;;;;;;;;5033207;28;20193;-64
2021/01/14 10:20:13;;;;;;;0.60;0.60;;;;;;;;;;5032802;28;20197;-66
2021/01/14 10:22:46;;;;;;;1.85;1.33;;;;;;;;;;5033310;28;20457;-65
2021/01/14 10:25:12;;;;;;;0.88;0.88;;;;;;;;;;5033226;28;20226;-65
2021/01/14 10:27:39;;;;;;;0.50;0.50;;;;;;;;;;5032314;28;20258;-65
2021/01/14 10:30:20;;;;;;;0.77;0.77;;;;;;;;;;5032486;28;20660;-66
2021/01/14 10:32:46;;;;;;;0.75;0.75;;;;;;;;;;5033119;28;20180;-65
2021/01/14 10:35:25;;;;;;;1.63;1.52;;;;;;;;;;5033100;28;20200;-66
2021/01/14 10:38:10;;;;;;;0.70;0.70;;;;;;;;;;5031214;28;20601;-66
2021/01/14 10:40:36;;;;;;;1.02;1.02;;;;;;;;;;5032107;28;20173;-65
2021/01/14 10:43:03;;;;;;;1.10;1.10;;;;;;;;;;5030875;28;20165;-65
2021/01/14 10:45:31;;;;;;;0.90;0.90;;;;;;;;;;5032825;28;20251;-66
2021/01/14 10:48:13;;;;;;;1.00;0.95;;;;;;;;;;5032833;28;20183;-65
2021/01/14 10:50:43;;;;;;;1.23;1.17;;;;;;;;;;5031656;28;20645;-65
2021/01/14 10:53:09;;;;;;;0.80;0.80;;;;;;;;;;5033190;28;20196;-65
2021/01/14 10:55:35;;;;;;;0.82;0.73;;;;;;;;;;5032683;28;20571;-65
2021/01/14 10:58:02;;;;;;;0.80;0.80;;;;;;;;;;5031980;28;20211;-66
2021/01/14 11:00:33;;;;;;;1.48;1.48;;;;;;;;;;5031584;28;20177;-65
2021/01/14 11:03:02;;;;;;;1.35;1.35;;;;;;;;;;5032150;28;20512;-65
2021/01/14 11:05:46;;;;;;;1.38;1.35;;;;;;;;;;5032295;28;20579;-66
2021/01/14 11:08:12;;;;;;;2.05;1.52;;;;;;;;;;5032205;28;20201;-65
2021/01/14 11:10:39;;;;;;;0.70;0.70;;;;;;;;;;5031919;28;20222;-66
2021/01/14 11:13:09;;;;;;;1.77;1.77;;;;;;;;;;5031883;28;20181;-65
2021/01/14 11:15:35;;;;;;;1.63;1.52;;;;;;;;;;5032098;28;20547;-66
2021/01/14 11:18:02;;;;;;;1.13;1.13;;;;;;;;;;5031576;28;20700;-66
2021/01/14 11:20:28;;;;;;;0.80;0.80;;;;;;;;;;5031809;28;20169;-65
2021/01/14 11:22:54;;;;;;;1.52;1.50;;;;;;;;;;5030072;28;20567;-65
2021/01/14 11:25:20;;;;;;;0.98;0.98;;;;;;;;;;5031917;28;20172;-66
2021/01/14 11:27:46;;;;;;;1.50;1.50;;;;;;;;;;5031129;28;20184;-65
2021/01/14 11:30:13;;;;;;;0.90;0.90;;;;;;;;;;5032242;28;20189;-65
2021/01/14 11:32:39;;;;;;;0.90;0.90;;;;;;;;;;5032073;28;20510;-66
2021/01/14 11:35:05;;;;;;;1.10;1.10;;;;;;;;;;5031881;28;20176;-65
2021/01/14 11:37:31;;;;;;;0.85;0.85;;;;;;;;;;5032332;28;20175;-65
2021/01/14 11:39:57;;;;;;;1.02;1.00;;;;;;;;;;5032048;28;20197;-65
2021/01/14 11:42:26;;;;;;;0.70;0.70;;;;;;;;;;5032225;28;20537;-66
2021/01/14 11:44:52;;;;;;;2.75;2.53;;;;;;;;;;5032267;28;20462;-65
2021/01/14 11:47:18;;;;;;;1.47;1.37;;;;;;;;;;5031632;28;20164;-66
2021/01/14 11:49:44;;;;;;;0.90;0.90;;;;;;;;;;5031266;28;20423;-65
2021/01/14 11:52:10;;;;;;;0.68;0.68;;;;;;;;;;5031955;28;20441;-65
2021/01/14 11:54:36;;;;;;;0.70;0.70;;;;;;;;;;5031688;28;20649;-65
2021/01/14 11:57:03;;;;;;;1.60;1.33;;;;;;;;;;5031564;28;20408;-65
2021/01/14 11:59:29;;;;;;;1.33;1.15;;;;;;;;;;5031627;28;20862;-66
2021/01/14 12:01:58;;;;;;;1.23;1.13;;;;;;;;;;5031837;28;20667;-65
2021/01/14 12:04:24;;;;;;;0.88;0.88;;;;;;;;;;5031858;28;20227;-65
2021/01/14 12:06:51;;;;;;;1.55;1.45;;;;;;;;;;5032019;28;20198;-66
2021/01/14 12:09:17;;;;;;;1.02;1.02;;;;;;;;;;5029648;28;20292;-65
2021/01/14 12:11:43;;;;;;;1.00;1.00;;;;;;;;;;5031964;28;20169;-65
2021/01/14 12:14:09;;;;;;;1.70;1.60;;;;;;;;;;5031944;28;20185;-66
2021/01/14 12:16:35;;;;;;;3.90;2.13;;;;;;;;;;5031680;28;20418;-66
2021/01/14 12:19:01;;;;;;;1.20;1.20;;;;;;;;;;5029591;28;20249;-65
2021/01/14 12:21:27;;;;;;;1.33;1.30;;;;;;;;;;5031838;28;20223;-65
2021/01/14 12:23:53;;;;;;;0.77;0.77;;;;;;;;;;5031814;28;20170;-65
2021/01/14 12:26:19;;;;;;;2.07;1.97;;;;;;;;;;5031862;28;20644;-65
2021/01/14 12:28:46;;;;;;;0.63;0.63;;;;;;;;;;5031254;28;20776;-65
2021/01/14 12:31:12;;;;;;;0.52;0.52;;;;;;;;;;5031095;28;20219;-65
2021/01/14 12:33:38;;;;;;;0.77;0.77;;;;;;;;;;5030199;28;20173;-66
2021/01/14 12:36:04;;;;;;;1.52;1.42;;;;;;;;;;5031415;28;20172;-66
2021/01/14 12:38:30;;;;;;;2.88;2.67;;;;;;;;;;5031318;28;20212;-65
2021/01/14 12:40:56;;;;;;;1.27;1.27;;;;;;;;;;5031098;28;20169;-66
2021/01/14 12:43:22;;;;;;;1.15;1.05;;;;;;;;;;5031015;28;20211;-66
2021/01/14 12:45:50;;;;;;;1.30;1.20;;;;;;;;;;5031715;28;20604;-66
2021/01/14 12:48:18;;;;;;;0.60;0.60;;;;;;;;;;5031645;28;20647;-66
2021/01/14 12:50:44;;;;;;;0.80;0.80;;;;;;;;;;5031338;28;20363;-65
2021/01/14 12:53:10;;;;;;;0.73;0.73;;;;;;;;;;5031523;28;20169;-65
2021/01/14 12:55:39;;;;;;;0.70;0.70;;;;;;;;;;5029757;28;20641;-66
2021/01/14 12:58:05;;;;;;;1.00;1.00;;;;;;;;;;5031211;28;20415;-65
2021/01/14 13:00:31;;;;;;;1.52;1.42;;;;;;;;;;5029587;28;20176;-66
2021/01/14 13:02:57;;;;;;;0.77;0.75;;;;;;;;;;5031061;28;20167;-66
2021/01/14 13:05:23;;;;;;;0.70;0.70;;;;;;;;;;5031010;28;20212;-66
2021/01/14 13:07:49;;;;;;;0.60;0.60;;;;;;;;;;5031199;28;20165;-65
2021/01/14 13:10:15;;;;;;;1.20;0.77;;;;;;;;;;5030889;28;20550;-66
2021/01/14 13:12:41;;;;;;;1.50;1.50;;;;;;;;;;5030973;28;20231;-64
2021/01/14 13:15:07;;;;;;;0.95;0.95;;;;;;;;;;5029544;28;20177;-66
2021/01/14 13:17:33;;;;;;;0.90;0.90;;;;;;;;;;5029879;28;20168;-65
2021/01/14 13:19:59;;;;;;;2.97;1.23;;;;;;;;;;5030572;28;20248;-66
2021/01/14 13:22:26;;;;;;;1.65;1.55;;;;;;;;;;5031293;28;20177;-66
2021/01/14 13:24:52;;;;;;;0.95;0.95;;;;;;;;;;5033696;28;20178;-65
2021/01/14 13:27:18;;;;;;;1.27;1.17;;;;;;;;;;5034528;28;20169;-65
2021/01/14 13:29:44;;;;;;;0.60;0.60;;;;;;;;;;5034973;28;20197;-65
2021/01/14 13:32:10;;;;;;;0.75;0.75;;;;;;;;;;5034440;28;20183;-65
2021/01/14 13:34:36;;;;;;;0.60;0.60;;;;;;;;;;5034601;28;20261;-65
2021/01/14 13:37:07;;;;;;;0.80;0.80;;;;;;;;;;5034232;28;20180;-65
2021/01/14 13:39:33;;;;;;;1.45;1.38;;;;;;;;;;5032742;28;20490;-65
2021/01/14 13:41:59;;;;;;;2.30;2.20;;;;;;;;;;5034211;28;20275;-65
2021/01/14 13:44:26;;;;;;;1.98;1.88;;;;;;;;;;5032776;28;20208;-65
2021/01/14 13:46:52;;;;;;;0.77;0.77;;;;;;;;;;5034199;28;20173;-65
2021/01/14 13:49:19;;;;;;;0.50;0.50;;;;;;;;;;5033606;28;20251;-65
2021/01/14 13:51:47;;;;;;;1.30;1.20;;;;;;;;;;5034094;28;20173;-65
2021/01/14 13:54:13;;;;;;;1.08;1.08;;;;;;;;;;5034066;28;20165;-65
2021/01/14 13:56:39;;;;;;;1.05;1.05;;;;;;;;;;5034080;28;20204;-65
2021/01/14 13:59:06;;;;;;;1.05;0.88;;;;;;;;;;5033288;28;20240;-65
2021/01/14 14:01:33;;;;;;;0.50;0.50;;;;;;;;;;5033887;28;20174;-65
2021/01/14 14:03:59;;;;;;;0.60;0.60;;;;;;;;;;5033372;28;20571;-65
2021/01/14 14:06:44;;;;;;;1.55;1.45;;;;;;;;;;5033373;28;20172;-65
2021/01/14 14:09:11;;;;;;;0.60;0.60;;;;;;;;;;5033319;28;20200;-65
2021/01/14 14:11:40;;;;;;;0.95;0.95;;;;;;;;;;5033006;28;20173;-65
2021/01/14 14:14:05;;;;;;;0.68;0.68;;;;;;;;;;5033050;28;20183;-65
2021/01/14 14:16:31;;;;;;;0.87;0.87;;;;;;;;;;5033306;28;20177;-65
2021/01/14 14:18:58;;;;;;;1.27;1.10;;;;;;;;;;5032886;28;20828;-65
2021/01/14 14:21:24;;;;;;;0.60;0.60;;;;;;;;;;5033213;28;20776;-64
2021/01/14 14:23:50;;;;;;;0.90;0.90;;;;;;;;;;5033249;28;20164;-65
2021/01/14 14:26:17;;;;;;;0.80;0.80;;;;;;;;;;5033342;28;20411;-64
2021/01/14 14:28:43;;;;;;;1.08;1.08;;;;;;;;;;5057871;22;20504;-64
2021/01/14 14:31:10;;;;;;;1.08;1.08;;;;;;;;;;5030394;28;20208;-64
2021/01/14 14:33:36;;;;;;;0.88;0.88;;;;;;;;;;5030747;28;20240;-65
2021/01/14 14:36:04;;;;;;;0.80;0.80;;;;;;;;;;5031241;28;20552;-64
2021/01/14 14:38:30;;;;;;;1.70;1.25;;;;;;;;;;5032808;28;20694;-64
2021/01/14 14:40:56;;;;;;;0.60;0.60;;;;;;;;;;5032585;28;20197;-64
2021/01/14 14:43:22;;;;;;;1.77;1.67;;;;;;;;;;5031916;28;20768;-65
2021/01/14 14:45:48;;;;;;;0.70;0.70;;;;;;;;;;5032170;28;20184;-64
2021/01/14 14:48:15;;;;;;;0.80;0.80;;;;;;;;;;5032793;28;20419;-65
2021/01/14 14:50:41;;;;;;;0.88;0.88;;;;;;;;;;5032378;28;20668;-64